sensor_id;sensor_type;location;lat;lon;timestamp;P1;durP1;ratioP1;P2;durP2;ratioP2
82777;SDS011;72510;45.128;20.734;2023-08-30T00:00:47;13.43;;;8.07;;
82777;SDS011;72510;45.128;20.734;2023-08-30T00:10:49;12.07;;;7.72;;
82777;SDS011;72510;45.128;20.734;2023-08-30T00:20:49;13.20;;;8.15;;
82777;SDS011;72510;45.128;20.734;2023-08-30T00:30:55;13.80;;;8.13;;
82777;SDS011;72510;45.128;20.734;2023-08-30T00:40:56;13.30;;;7.35;;
82777;SDS011;72510;45.128;20.734;2023-08-30T00:50:57;16.10;;;8.95;;
82777;SDS011;72510;45.128;20.734;2023-08-30T01:00:59;13.13;;;8.83;;
82777;SDS011;72510;45.128;20.734;2023-08-30T01:21:09;16.45;;;9.43;;
82777;SDS011;72510;45.128;20.734;2023-08-30T01:31:14;12.77;;;9.10;;
82777;SDS011;72510;45.128;20.734;2023-08-30T01:41:15;11.20;;;8.18;;
82777;SDS011;72510;45.128;20.734;2023-08-30T01:51:17;12.77;;;8.27;;
82777;SDS011;72510;45.128;20.734;2023-08-30T02:01:18;12.77;;;8.32;;
82777;SDS011;72510;45.128;20.734;2023-08-30T02:11:21;12.30;;;7.77;;
82777;SDS011;72510;45.128;20.734;2023-08-30T02:21:24;14.70;;;9.80;;
82777;SDS011;72510;45.128;20.734;2023-08-30T02:31:25;13.82;;;9.15;;
82777;SDS011;72510;45.128;20.734;2023-08-30T02:41:26;14.73;;;10.05;;
82777;SDS011;72510;45.128;20.734;2023-08-30T02:51:26;15.93;;;10.35;;
82777;SDS011;72510;45.128;20.734;2023-08-30T03:01:27;14.80;;;9.18;;
82777;SDS011;72510;45.128;20.734;2023-08-30T03:11:28;16.15;;;9.23;;
82777;SDS011;72510;45.128;20.734;2023-08-30T03:21:29;15.50;;;10.48;;
82777;SDS011;72510;45.128;20.734;2023-08-30T03:31:31;16.55;;;10.30;;
82777;SDS011;72510;45.128;20.734;2023-08-30T03:41:32;17.60;;;10.63;;
82777;SDS011;72510;45.128;20.734;2023-08-30T03:51:35;16.45;;;9.88;;
82777;SDS011;72510;45.128;20.734;2023-08-30T04:01:35;18.73;;;10.55;;
82777;SDS011;72510;45.128;20.734;2023-08-30T04:11:36;15.45;;;10.55;;
82777;SDS011;72510;45.128;20.734;2023-08-30T04:21:36;18.37;;;10.57;;
82777;SDS011;72510;45.128;20.734;2023-08-30T04:31:36;19.00;;;11.00;;
82777;SDS011;72510;45.128;20.734;2023-08-30T04:41:37;18.10;;;10.77;;
82777;SDS011;72510;45.128;20.734;2023-08-30T04:51:38;17.50;;;10.90;;
82777;SDS011;72510;45.128;20.734;2023-08-30T05:01:39;20.33;;;11.27;;
82777;SDS011;72510;45.128;20.734;2023-08-30T05:11:40;20.27;;;12.23;;
82777;SDS011;72510;45.128;20.734;2023-08-30T05:21:41;18.70;;;12.27;;
82777;SDS011;72510;45.128;20.734;2023-08-30T05:31:42;19.70;;;11.63;;
82777;SDS011;72510;45.128;20.734;2023-08-30T05:41:59;19.40;;;11.57;;
82777;SDS011;72510;45.128;20.734;2023-08-30T05:51:59;19.55;;;11.10;;
82777;SDS011;72510;45.128;20.734;2023-08-30T06:02:00;18.73;;;12.32;;
82777;SDS011;72510;45.128;20.734;2023-08-30T06:12:01;18.02;;;12.07;;
82777;SDS011;72510;45.128;20.734;2023-08-30T06:22:01;17.73;;;12.30;;
82777;SDS011;72510;45.128;20.734;2023-08-30T06:42:03;16.90;;;11.50;;
82777;SDS011;72510;45.128;20.734;2023-08-30T06:52:05;17.20;;;11.38;;
82777;SDS011;72510;45.128;20.734;2023-08-30T07:02:05;18.95;;;11.75;;
82777;SDS011;72510;45.128;20.734;2023-08-30T07:22:06;18.35;;;12.45;;
82777;SDS011;72510;45.128;20.734;2023-08-30T07:32:07;19.57;;;12.33;;
82777;SDS011;72510;45.128;20.734;2023-08-30T07:42:08;20.48;;;12.85;;
82777;SDS011;72510;45.128;20.734;2023-08-30T07:52:08;16.10;;;11.88;;
82777;SDS011;72510;45.128;20.734;2023-08-30T08:02:11;17.52;;;11.20;;
82777;SDS011;72510;45.128;20.734;2023-08-30T08:12:11;15.70;;;10.45;;
82777;SDS011;72510;45.128;20.734;2023-08-30T08:22:23;15.20;;;11.23;;
82777;SDS011;72510;45.128;20.734;2023-08-30T08:32:24;18.67;;;11.90;;
82777;SDS011;72510;45.128;20.734;2023-08-30T08:42:24;20.58;;;13.15;;
82777;SDS011;72510;45.128;20.734;2023-08-30T08:52:27;20.98;;;13.75;;
82777;SDS011;72510;45.128;20.734;2023-08-30T09:02:28;19.70;;;13.27;;
82777;SDS011;72510;45.128;20.734;2023-08-30T09:12:35;22.53;;;13.37;;
82777;SDS011;72510;45.128;20.734;2023-08-30T09:22:37;20.83;;;12.30;;
82777;SDS011;72510;45.128;20.734;2023-08-30T09:32:38;21.50;;;12.77;;
82777;SDS011;72510;45.128;20.734;2023-08-30T09:42:41;20.27;;;12.80;;
82777;SDS011;72510;45.128;20.734;2023-08-30T09:52:42;18.85;;;13.10;;
82777;SDS011;72510;45.128;20.734;2023-08-30T10:02:43;19.30;;;13.35;;
82777;SDS011;72510;45.128;20.734;2023-08-30T10:12:45;18.25;;;13.48;;
82777;SDS011;72510;45.128;20.734;2023-08-30T10:22:49;19.88;;;13.93;;
82777;SDS011;72510;45.128;20.734;2023-08-30T10:32:52;19.52;;;13.65;;
82777;SDS011;72510;45.128;20.734;2023-08-30T10:43:01;18.48;;;12.60;;
82777;SDS011;72510;45.128;20.734;2023-08-30T10:53:02;18.25;;;12.93;;
82777;SDS011;72510;45.128;20.734;2023-08-30T11:03:04;20.53;;;15.13;;
82777;SDS011;72510;45.128;20.734;2023-08-30T11:13:14;23.05;;;15.55;;
82777;SDS011;72510;45.128;20.734;2023-08-30T11:23:15;22.33;;;14.82;;
82777;SDS011;72510;45.128;20.734;2023-08-30T11:33:18;15.90;;;12.00;;
82777;SDS011;72510;45.128;20.734;2023-08-30T11:43:23;5.30;;;3.92;;
82777;SDS011;72510;45.128;20.734;2023-08-30T11:53:24;2.95;;;2.45;;
82777;SDS011;72510;45.128;20.734;2023-08-30T12:03:28;4.38;;;2.78;;
82777;SDS011;72510;45.128;20.734;2023-08-30T12:13:31;3.10;;;2.50;;
82777;SDS011;72510;45.128;20.734;2023-08-30T12:23:33;3.38;;;2.38;;
82777;SDS011;72510;45.128;20.734;2023-08-30T12:33:34;2.97;;;2.63;;
82777;SDS011;72510;45.128;20.734;2023-08-30T12:43:35;3.80;;;2.22;;
82777;SDS011;72510;45.128;20.734;2023-08-30T12:53:35;4.90;;;4.07;;
82777;SDS011;72510;45.128;20.734;2023-08-30T13:03:36;4.47;;;3.37;;
82777;SDS011;72510;45.128;20.734;2023-08-30T13:13:36;3.22;;;2.72;;
82777;SDS011;72510;45.128;20.734;2023-08-30T13:23:37;3.03;;;2.80;;
82777;SDS011;72510;45.128;20.734;2023-08-30T13:33:38;2.72;;;2.53;;
82777;SDS011;72510;45.128;20.734;2023-08-30T13:43:39;4.53;;;2.92;;
82777;SDS011;72510;45.128;20.734;2023-08-30T13:53:39;2.97;;;2.63;;
82777;SDS011;72510;45.128;20.734;2023-08-30T14:03:40;2.80;;;2.50;;
82777;SDS011;72510;45.128;20.734;2023-08-30T14:13:44;4.00;;;2.83;;
82777;SDS011;72510;45.128;20.734;2023-08-30T14:23:50;2.85;;;2.58;;
82777;SDS011;72510;45.128;20.734;2023-08-30T14:33:51;3.17;;;2.55;;
82777;SDS011;72510;45.128;20.734;2023-08-30T14:43:56;3.00;;;2.70;;
82777;SDS011;72510;45.128;20.734;2023-08-30T14:53:56;3.80;;;3.42;;
82777;SDS011;72510;45.128;20.734;2023-08-30T15:03:57;3.60;;;3.22;;
82777;SDS011;72510;45.128;20.734;2023-08-30T15:13:57;3.50;;;3.20;;
82777;SDS011;72510;45.128;20.734;2023-08-30T15:24:04;3.63;;;3.33;;
82777;SDS011;72510;45.128;20.734;2023-08-30T15:34:05;4.18;;;3.38;;
82777;SDS011;72510;45.128;20.734;2023-08-30T15:44:05;4.10;;;3.70;;
82777;SDS011;72510;45.128;20.734;2023-08-30T15:54:06;3.58;;;3.28;;
82777;SDS011;72510;45.128;20.734;2023-08-30T16:04:07;9.40;;;3.85;;
82777;SDS011;72510;45.128;20.734;2023-08-30T16:14:07;3.93;;;3.40;;
82777;SDS011;72510;45.128;20.734;2023-08-30T16:24:08;4.50;;;4.07;;
82777;SDS011;72510;45.128;20.734;2023-08-30T16:34:09;5.32;;;4.38;;
82777;SDS011;72510;45.128;20.734;2023-08-30T16:44:09;5.78;;;4.68;;
82777;SDS011;72510;45.128;20.734;2023-08-30T16:54:10;7.18;;;5.13;;
82777;SDS011;72510;45.128;20.734;2023-08-30T17:04:11;5.30;;;4.63;;
82777;SDS011;72510;45.128;20.734;2023-08-30T17:14:11;6.35;;;5.15;;
82777;SDS011;72510;45.128;20.734;2023-08-30T17:24:12;6.73;;;5.20;;
82777;SDS011;72510;45.128;20.734;2023-08-30T17:34:12;17.13;;;5.68;;
82777;SDS011;72510;45.128;20.734;2023-08-30T17:44:12;12.43;;;5.47;;
82777;SDS011;72510;45.128;20.734;2023-08-30T17:54:13;8.23;;;4.95;;
82777;SDS011;72510;45.128;20.734;2023-08-30T18:04:13;8.02;;;5.25;;
82777;SDS011;72510;45.128;20.734;2023-08-30T18:14:14;11.60;;;5.15;;
82777;SDS011;72510;45.128;20.734;2023-08-30T18:24:16;6.83;;;5.57;;
82777;SDS011;72510;45.128;20.734;2023-08-30T18:34:17;8.93;;;5.68;;
82777;SDS011;72510;45.128;20.734;2023-08-30T18:44:18;8.20;;;5.70;;
82777;SDS011;72510;45.128;20.734;2023-08-30T18:54:18;7.65;;;5.97;;
82777;SDS011;72510;45.128;20.734;2023-08-30T19:14:19;7.78;;;5.97;;
82777;SDS011;72510;45.128;20.734;2023-08-30T19:24:19;7.60;;;5.80;;
82777;SDS011;72510;45.128;20.734;2023-08-30T19:34:20;8.93;;;6.15;;
82777;SDS011;72510;45.128;20.734;2023-08-30T19:44:20;8.93;;;6.63;;
82777;SDS011;72510;45.128;20.734;2023-08-30T19:54:20;7.55;;;6.28;;
82777;SDS011;72510;45.128;20.734;2023-08-30T20:04:21;10.88;;;7.38;;
82777;SDS011;72510;45.128;20.734;2023-08-30T20:14:21;10.52;;;6.57;;
82777;SDS011;72510;45.128;20.734;2023-08-30T20:24:22;16.35;;;9.13;;
82777;SDS011;72510;45.128;20.734;2023-08-30T20:34:22;12.32;;;8.00;;
82777;SDS011;72510;45.128;20.734;2023-08-30T20:44:23;9.93;;;5.20;;
82777;SDS011;72510;45.128;20.734;2023-08-30T20:54:23;7.25;;;4.47;;
